sensor_id;sensor_type;location;lat;lon;timestamp;pressure;altitude;pressure_sealevel;temperature;humidity
22261;BME280;11299;43.202;27.920;2023-04-02T00:08:57;100019.47;;;11.46;100.00
22261;BME280;11299;43.202;27.920;2023-04-02T00:11:32;99905.44;;;11.18;100.00
22261;BME280;11299;43.202;27.920;2023-04-02T00:14:01;99854.00;;;10.82;100.00
22261;BME280;11299;43.202;27.920;2023-04-02T00:16:28;99914.31;;;11.15;100.00
22261;BME280;11299;43.202;27.920;2023-04-02T00:18:57;99992.38;;;11.43;100.00
22261;BME280;11299;43.202;27.920;2023-04-02T00:21:29;99947.78;;;11.29;100.00
22261;BME280;11299;43.202;27.920;2023-04-02T00:23:59;99936.44;;;11.20;100.00
22261;BME280;11299;43.202;27.920;2023-04-02T00:26:30;99872.78;;;10.70;100.00
22261;BME280;11299;43.202;27.920;2023-04-02T00:28:59;99992.34;;;11.27;100.00
22261;BME280;11299;43.202;27.920;2023-04-02T00:31:26;99947.50;;;11.05;100.00
22261;BME280;11299;43.202;27.920;2023-04-02T00:33:52;99966.88;;;11.10;100.00
22261;BME280;11299;43.202;27.920;2023-04-02T00:36:20;99933.66;;;10.80;100.00
22261;BME280;11299;43.202;27.920;2023-04-02T00:38:46;99925.34;;;10.75;100.00
22261;BME280;11299;43.202;27.920;2023-04-02T00:41:19;99985.09;;;10.81;100.00
22261;BME280;11299;43.202;27.920;2023-04-02T00:43:47;99883.75;;;10.25;100.00
22261;BME280;11299;43.202;27.920;2023-04-02T00:46:19;99890.69;;;10.27;100.00
22261;BME280;11299;43.202;27.920;2023-04-02T00:48:49;100007.78;;;10.88;100.00
22261;BME280;11299;43.202;27.920;2023-04-02T00:51:22;99987.31;;;10.84;100.00
22261;BME280;11299;43.202;27.920;2023-04-02T00:53:51;99864.63;;;10.08;100.00
22261;BME280;11299;43.202;27.920;2023-04-02T00:58:52;99991.66;;;10.55;100.00
22261;BME280;11299;43.202;27.920;2023-04-02T01:01:23;99909.72;;;10.19;100.00
22261;BME280;11299;43.202;27.920;2023-04-02T01:03:56;99978.34;;;10.47;100.00
22261;BME280;11299;43.202;27.920;2023-04-02T01:06:25;99976.44;;;10.53;100.00
22261;BME280;11299;43.202;27.920;2023-04-02T01:09:39;99985.03;;;10.61;100.00
22261;BME280;11299;43.202;27.920;2023-04-02T01:12:51;99994.41;;;10.50;100.00
22261;BME280;11299;43.202;27.920;2023-04-02T01:15:18;99988.88;;;10.50;100.00
22261;BME280;11299;43.202;27.920;2023-04-02T01:20:50;99995.41;;;10.29;100.00
22261;BME280;11299;43.202;27.920;2023-04-02T01:31:21;99864.94;;;9.55;100.00
22261;BME280;11299;43.202;27.920;2023-04-02T01:33:47;99989.34;;;10.27;100.00
22261;BME280;11299;43.202;27.920;2023-04-02T01:36:52;99981.09;;;10.37;100.00
22261;BME280;11299;43.202;27.920;2023-04-02T01:45:00;100009.53;;;10.32;100.00
22261;BME280;11299;43.202;27.920;2023-04-02T01:47:26;99821.09;;;9.12;100.00
22261;BME280;11299;43.202;27.920;2023-04-02T01:52:44;99988.75;;;10.20;100.00
22261;BME280;11299;43.202;27.920;2023-04-02T01:55:12;99979.97;;;10.33;100.00
22261;BME280;11299;43.202;27.920;2023-04-02T01:57:41;99940.38;;;10.17;100.00
22261;BME280;11299;43.202;27.920;2023-04-02T02:00:10;99929.56;;;10.11;100.00
22261;BME280;11299;43.202;27.920;2023-04-02T02:02:40;99994.91;;;10.42;100.00
22261;BME280;11299;43.202;27.920;2023-04-02T02:05:14;99842.66;;;9.72;100.00
22261;BME280;11299;43.202;27.920;2023-04-02T02:07:40;99956.50;;;10.40;100.00
22261;BME280;11299;43.202;27.920;2023-04-02T02:10:14;99941.50;;;10.21;100.00
22261;BME280;11299;43.202;27.920;2023-04-02T02:12:42;100033.09;;;10.50;100.00
22261;BME280;11299;43.202;27.920;2023-04-02T02:15:16;99893.63;;;10.06;100.00
22261;BME280;11299;43.202;27.920;2023-04-02T02:17:42;99975.63;;;10.52;100.00
22261;BME280;11299;43.202;27.920;2023-04-02T02:20:09;99986.13;;;10.60;100.00
22261;BME280;11299;43.202;27.920;2023-04-02T02:22:39;99726.84;;;8.78;100.00
22261;BME280;11299;43.202;27.920;2023-04-02T02:25:13;99988.38;;;10.68;100.00
22261;BME280;11299;43.202;27.920;2023-04-02T02:43:59;99965.72;;;10.76;100.00
22261;BME280;11299;43.202;27.920;2023-04-02T02:46:27;99973.50;;;10.84;100.00
22261;BME280;11299;43.202;27.920;2023-04-02T02:48:56;99988.41;;;10.83;100.00
22261;BME280;11299;43.202;27.920;2023-04-02T02:51:28;99989.28;;;10.94;100.00
22261;BME280;11299;43.202;27.920;2023-04-02T02:53:59;99928.91;;;10.66;100.00
22261;BME280;11299;43.202;27.920;2023-04-02T02:56:28;99833.53;;;9.66;100.00
22261;BME280;11299;43.202;27.920;2023-04-02T02:58:55;99848.28;;;10.02;100.00
22261;BME280;11299;43.202;27.920;2023-04-02T03:01:21;99936.34;;;10.60;100.00
22261;BME280;11299;43.202;27.920;2023-04-02T03:03:47;99971.53;;;10.80;100.00
22261;BME280;11299;43.202;27.920;2023-04-02T03:06:16;99989.50;;;10.77;100.00
22261;BME280;11299;43.202;27.920;2023-04-02T03:08:55;99990.38;;;10.88;100.00
22261;BME280;11299;43.202;27.920;2023-04-02T03:11:32;99935.19;;;10.41;100.00
22261;BME280;11299;43.202;27.920;2023-04-02T03:20:11;99934.72;;;10.59;100.00
22261;BME280;11299;43.202;27.920;2023-04-02T03:25:24;100026.66;;;11.16;100.00
22261;BME280;11299;43.202;27.920;2023-04-02T03:27:57;100075.38;;;11.22;100.00
22261;BME280;11299;43.202;27.920;2023-04-02T03:30:32;100021.94;;;11.17;100.00
22261;BME280;11299;43.202;27.920;2023-04-02T03:35:48;100024.19;;;11.25;100.00
22261;BME280;11299;43.202;27.920;2023-04-02T03:38:23;99993.69;;;10.95;100.00
22261;BME280;11299;43.202;27.920;2023-04-02T03:43:48;99917.56;;;10.57;100.00
22261;BME280;11299;43.202;27.920;2023-04-02T03:46:23;100013.38;;;11.13;100.00
22261;BME280;11299;43.202;27.920;2023-04-02T03:48:53;99983.44;;;10.90;100.00
22261;BME280;11299;43.202;27.920;2023-04-02T03:51:33;99997.56;;;10.94;100.00
22261;BME280;11299;43.202;27.920;2023-04-02T03:54:00;99983.19;;;10.97;100.00
22261;BME280;11299;43.202;27.920;2023-04-02T03:59:02;99893.75;;;10.36;100.00
22261;BME280;11299;43.202;27.920;2023-04-02T04:01:34;100004.53;;;11.16;100.00
22261;BME280;11299;43.202;27.920;2023-04-02T04:04:10;100072.84;;;11.06;100.00
22261;BME280;11299;43.202;27.920;2023-04-02T04:06:41;100004.22;;;11.03;100.00
22261;BME280;11299;43.202;27.920;2023-04-02T04:09:10;100062.09;;;11.29;100.00
22261;BME280;11299;43.202;27.920;2023-04-02T04:11:46;99997.84;;;11.07;100.00
22261;BME280;11299;43.202;27.920;2023-04-02T04:19:45;100076.53;;;11.62;100.00
22261;BME280;11299;43.202;27.920;2023-04-02T04:22:23;100033.06;;;11.52;100.00
22261;BME280;11299;43.202;27.920;2023-04-02T04:25:02;100015.06;;;11.50;100.00
22261;BME280;11299;43.202;27.920;2023-04-02T04:28:00;100059.38;;;11.85;100.00
22261;BME280;11299;43.202;27.920;2023-04-02T04:30:55;100008.41;;;11.51;100.00
22261;BME280;11299;43.202;27.920;2023-04-02T04:33:27;100061.59;;;11.78;100.00
22261;BME280;11299;43.202;27.920;2023-04-02T04:36:05;100021.72;;;11.33;100.00
22261;BME280;11299;43.202;27.920;2023-04-02T04:38:34;99960.25;;;11.21;100.00
22261;BME280;11299;43.202;27.920;2023-04-02T04:41:19;100068.81;;;11.79;100.00
22261;BME280;11299;43.202;27.920;2023-04-02T04:44:13;100094.28;;;11.71;100.00
22261;BME280;11299;43.202;27.920;2023-04-02T04:47:46;100072.16;;;11.81;100.00
22261;BME280;11299;43.202;27.920;2023-04-02T04:49:52;100028.09;;;11.54;100.00
22261;BME280;11299;43.202;27.920;2023-04-02T04:52:28;100052.75;;;11.71;100.00
22261;BME280;11299;43.202;27.920;2023-04-02T04:54:56;100053.81;;;11.60;100.00
22261;BME280;11299;43.202;27.920;2023-04-02T04:57:28;99989.03;;;11.41;100.00
22261;BME280;11299;43.202;27.920;2023-04-02T04:59:58;100026.13;;;11.65;100.00
22261;BME280;11299;43.202;27.920;2023-04-02T05:02:30;99990.69;;;11.42;100.00
22261;BME280;11299;43.202;27.920;2023-04-02T05:04:57;100051.09;;;11.90;100.00
22261;BME280;11299;43.202;27.920;2023-04-02T05:07:27;100054.41;;;11.92;100.00
22261;BME280;11299;43.202;27.920;2023-04-02T05:10:03;99678.69;;;9.73;100.00
22261;BME280;11299;43.202;27.920;2023-04-02T05:12:48;100112.00;;;12.35;100.00
22261;BME280;11299;43.202;27.920;2023-04-02T05:20:35;100003.94;;;12.05;100.00
22261;BME280;11299;43.202;27.920;2023-04-02T05:23:16;99905.72;;;11.37;100.00
22261;BME280;11299;43.202;27.920;2023-04-02T05:25:57;100049.34;;;12.29;100.00
22261;BME280;11299;43.202;27.920;2023-04-02T05:28:38;100048.50;;;12.34;100.00
22261;BME280;11299;43.202;27.920;2023-04-02T05:31:12;100112.75;;;12.66;100.00
22261;BME280;11299;43.202;27.920;2023-04-02T05:33:44;100088.09;;;12.54;100.00
22261;BME280;11299;43.202;27.920;2023-04-02T05:36:18;100126.25;;;12.87;100.00
22261;BME280;11299;43.202;27.920;2023-04-02T05:38:46;100059.78;;;12.57;100.00
22261;BME280;11299;43.202;27.920;2023-04-02T05:41:25;100118.47;;;12.89;100.00
22261;BME280;11299;43.202;27.920;2023-04-02T05:44:11;100050.38;;;12.53;100.00
22261;BME280;11299;43.202;27.920;2023-04-02T05:46:46;100100.44;;;12.92;100.00
22261;BME280;11299;43.202;27.920;2023-04-02T05:49:17;100085.19;;;12.89;100.00
22261;BME280;11299;43.202;27.920;2023-04-02T05:51:48;100091.31;;;12.81;100.00
22261;BME280;11299;43.202;27.920;2023-04-02T05:54:22;99977.59;;;12.07;100.00
22261;BME280;11299;43.202;27.920;2023-04-02T05:56:59;100104.06;;;12.87;100.00
22261;BME280;11299;43.202;27.920;2023-04-02T05:59:48;100022.72;;;12.33;100.00
22261;BME280;11299;43.202;27.920;2023-04-02T06:02:57;100106.50;;;13.09;100.00
22261;BME280;11299;43.202;27.920;2023-04-02T06:05:31;100114.75;;;13.24;100.00
22261;BME280;11299;43.202;27.920;2023-04-02T06:08:04;100095.66;;;13.12;100.00
22261;BME280;11299;43.202;27.920;2023-04-02T06:10:46;100056.88;;;12.87;100.00
22261;BME280;11299;43.202;27.920;2023-04-02T06:13:16;100104.19;;;13.26;100.00
22261;BME280;11299;43.202;27.920;2023-04-02T06:15:43;100083.41;;;13.18;100.00
22261;BME280;11299;43.202;27.920;2023-04-02T06:18:15;100063.97;;;13.18;100.00
22261;BME280;11299;43.202;27.920;2023-04-02T06:20:42;100119.25;;;13.59;100.00
22261;BME280;11299;43.202;27.920;2023-04-02T06:23:24;100103.69;;;13.58;100.00
22261;BME280;11299;43.202;27.920;2023-04-02T06:26:08;99839.75;;;11.74;100.00
22261;BME280;11299;43.202;27.920;2023-04-02T06:28:40;100104.13;;;13.75;100.00
22261;BME280;11299;43.202;27.920;2023-04-02T06:33:49;100112.28;;;14.00;100.00
22261;BME280;11299;43.202;27.920;2023-04-02T06:36:18;100131.00;;;14.18;100.00
22261;BME280;11299;43.202;27.920;2023-04-02T06:38:46;100141.47;;;14.31;100.00
22261;BME280;11299;43.202;27.920;2023-04-02T06:41:18;100052.34;;;13.84;100.00
22261;BME280;11299;43.202;27.920;2023-04-02T06:43:56;100078.09;;;14.28;100.00
22261;BME280;11299;43.202;27.920;2023-04-02T06:46:31;100139.53;;;14.60;100.00
22261;BME280;11299;43.202;27.920;2023-04-02T06:49:12;100050.50;;;14.03;100.00
22261;BME280;11299;43.202;27.920;2023-04-02T06:51:39;100092.50;;;14.35;100.00
22261;BME280;11299;43.202;27.920;2023-04-02T06:54:12;99995.38;;;13.86;100.00
22261;BME280;11299;43.202;27.920;2023-04-02T06:56:43;100117.03;;;14.57;100.00
22261;BME280;11299;43.202;27.920;2023-04-02T06:59:09;100069.69;;;14.33;100.00
22261;BME280;11299;43.202;27.920;2023-04-02T07:01:51;100080.09;;;14.51;100.00
22261;BME280;11299;43.202;27.920;2023-04-02T07:04:18;100121.22;;;14.54;100.00
22261;BME280;11299;43.202;27.920;2023-04-02T07:06:44;100093.22;;;14.46;100.00
22261;BME280;11299;43.202;27.920;2023-04-02T07:09:10;100001.84;;;13.77;100.00
22261;BME280;11299;43.202;27.920;2023-04-02T07:11:35;100105.94;;;14.52;100.00
22261;BME280;11299;43.202;27.920;2023-04-02T07:14:01;100101.84;;;14.44;100.00
22261;BME280;11299;43.202;27.920;2023-04-02T07:16:29;100159.66;;;14.52;100.00
22261;BME280;11299;43.202;27.920;2023-04-02T07:18:55;100141.78;;;14.58;100.00
22261;BME280;11299;43.202;27.920;2023-04-02T07:21:23;100087.00;;;14.25;100.00
22261;BME280;11299;43.202;27.920;2023-04-02T07:23:49;100121.16;;;14.36;100.00
22261;BME280;11299;43.202;27.920;2023-04-02T07:26:17;100111.84;;;14.16;100.00
22261;BME280;11299;43.202;27.920;2023-04-02T07:28:43;100105.41;;;14.21;100.00
22261;BME280;11299;43.202;27.920;2023-04-02T07:31:24;100139.16;;;14.43;100.00
22261;BME280;11299;43.202;27.920;2023-04-02T07:33:52;100122.38;;;14.53;100.00
22261;BME280;11299;43.202;27.920;2023-04-02T07:36:20;100085.41;;;14.71;100.00
22261;BME280;11299;43.202;27.920;2023-04-02T07:38:47;100111.81;;;14.97;100.00
22261;BME280;11299;43.202;27.920;2023-04-02T07:41:13;100161.91;;;15.45;100.00
22261;BME280;11299;43.202;27.920;2023-04-02T07:43:39;100142.66;;;15.25;100.00
22261;BME280;11299;43.202;27.920;2023-04-02T07:46:05;99985.22;;;14.24;100.00
22261;BME280;11299;43.202;27.920;2023-04-02T07:48:31;100090.09;;;14.76;100.00
22261;BME280;11299;43.202;27.920;2023-04-02T07:50:57;100150.59;;;15.13;100.00
22261;BME280;11299;43.202;27.920;2023-04-02T07:53:34;100084.88;;;14.69;100.00
22261;BME280;11299;43.202;27.920;2023-04-02T07:56:03;100169.72;;;15.00;100.00
22261;BME280;11299;43.202;27.920;2023-04-02T07:58:30;100173.72;;;14.89;100.00
22261;BME280;11299;43.202;27.920;2023-04-02T08:00:58;100112.28;;;14.57;100.00
22261;BME280;11299;43.202;27.920;2023-04-02T08:03:25;100199.97;;;14.83;100.00
22261;BME280;11299;43.202;27.920;2023-04-02T08:05:56;100198.38;;;14.72;100.00
22261;BME280;11299;43.202;27.920;2023-04-02T08:08:23;100169.75;;;14.43;100.00
22261;BME280;11299;43.202;27.920;2023-04-02T08:10:49;100096.81;;;13.84;100.00
22261;BME280;11299;43.202;27.920;2023-04-02T08:13:16;100200.59;;;14.47;100.00
22261;BME280;11299;43.202;27.920;2023-04-02T08:15:42;100197.94;;;14.32;100.00
22261;BME280;11299;43.202;27.920;2023-04-02T08:18:08;100183.81;;;14.23;100.00
22261;BME280;11299;43.202;27.920;2023-04-02T08:20:34;100163.88;;;14.11;100.00
22261;BME280;11299;43.202;27.920;2023-04-02T08:23:00;100212.09;;;14.35;100.00
22261;BME280;11299;43.202;27.920;2023-04-02T08:25:26;100185.78;;;14.17;100.00
22261;BME280;11299;43.202;27.920;2023-04-02T08:27:52;100142.59;;;13.96;100.00
22261;BME280;11299;43.202;27.920;2023-04-02T08:30:18;100217.09;;;14.38;100.00
22261;BME280;11299;43.202;27.920;2023-04-02T08:32:43;100201.50;;;14.37;100.00
22261;BME280;11299;43.202;27.920;2023-04-02T08:35:11;100202.00;;;14.44;100.00
22261;BME280;11299;43.202;27.920;2023-04-02T08:37:37;100183.72;;;14.38;100.00
22261;BME280;11299;43.202;27.920;2023-04-02T08:40:04;100157.41;;;14.21;100.00
22261;BME280;11299;43.202;27.920;2023-04-02T08:42:46;100196.41;;;14.49;100.00
22261;BME280;11299;43.202;27.920;2023-04-02T08:47:58;100135.81;;;14.41;100.00
22261;BME280;11299;43.202;27.920;2023-04-02T08:50:33;100191.22;;;14.95;100.00
22261;BME280;11299;43.202;27.920;2023-04-02T08:53:10;100217.88;;;15.25;100.00
22261;BME280;11299;43.202;27.920;2023-04-02T08:56:15;100168.56;;;15.01;100.00
22261;BME280;11299;43.202;27.920;2023-04-02T08:58:49;100217.16;;;15.38;100.00
22261;BME280;11299;43.202;27.920;2023-04-02T09:01:38;100221.03;;;15.42;100.00
22261;BME280;11299;43.202;27.920;2023-04-02T09:04:14;100235.75;;;15.47;100.00
22261;BME280;11299;43.202;27.920;2023-04-02T09:06:41;100158.06;;;14.93;100.00
22261;BME280;11299;43.202;27.920;2023-04-02T09:09:08;100138.00;;;14.73;100.00
22261;BME280;11299;43.202;27.920;2023-04-02T09:14:21;100232.34;;;15.50;100.00
22261;BME280;11299;43.202;27.920;2023-04-02T09:16:52;100120.00;;;14.89;100.00
22261;BME280;11299;43.202;27.920;2023-04-02T09:19:32;100312.88;;;15.52;100.00
22261;BME280;11299;43.202;27.920;2023-04-02T09:22:08;100166.91;;;15.24;100.00
22261;BME280;11299;43.202;27.920;2023-04-02T09:24:37;100252.38;;;15.76;100.00
22261;BME280;11299;43.202;27.920;2023-04-02T09:27:03;100140.59;;;15.12;100.00
22261;BME280;11299;43.202;27.920;2023-04-02T09:32:58;100221.09;;;15.79;100.00
22261;BME280;11299;43.202;27.920;2023-04-02T09:35:52;100146.34;;;15.44;100.00
22261;BME280;11299;43.202;27.920;2023-04-02T09:38:22;100219.53;;;16.10;100.00
22261;BME280;11299;43.202;27.920;2023-04-02T09:43:17;100161.91;;;16.19;100.00
22261;BME280;11299;43.202;27.920;2023-04-02T09:45:43;100239.13;;;16.74;100.00
22261;BME280;11299;43.202;27.920;2023-04-02T09:48:30;100110.38;;;15.98;100.00
22261;BME280;11299;43.202;27.920;2023-04-02T09:53:50;100119.19;;;16.05;100.00
22261;BME280;11299;43.202;27.920;2023-04-02T09:56:23;100229.19;;;16.68;100.00
22261;BME280;11299;43.202;27.920;2023-04-02T09:59:05;100246.63;;;16.60;100.00
22261;BME280;11299;43.202;27.920;2023-04-02T10:01:32;100304.66;;;16.63;100.00
22261;BME280;11299;43.202;27.920;2023-04-02T10:03:58;100204.47;;;16.75;100.00
22261;BME280;11299;43.202;27.920;2023-04-02T10:06:27;100157.75;;;16.81;100.00
22261;BME280;11299;43.202;27.920;2023-04-02T10:08:53;100229.59;;;17.35;100.00
22261;BME280;11299;43.202;27.920;2023-04-02T10:11:27;100236.47;;;17.56;100.00
22261;BME280;11299;43.202;27.920;2023-04-02T10:14:10;100121.94;;;16.69;100.00
22261;BME280;11299;43.202;27.920;2023-04-02T10:16:45;100212.44;;;17.28;100.00
22261;BME280;11299;43.202;27.920;2023-04-02T10:19:35;100244.13;;;17.50;100.00
22261;BME280;11299;43.202;27.920;2023-04-02T10:22:04;100169.59;;;17.05;100.00
22261;BME280;11299;43.202;27.920;2023-04-02T10:24:33;100215.22;;;17.28;100.00
22261;BME280;11299;43.202;27.920;2023-04-02T10:27:20;100278.25;;;17.34;100.00
22261;BME280;11299;43.202;27.920;2023-04-02T10:33:06;100250.66;;;17.00;100.00
22261;BME280;11299;43.202;27.920;2023-04-02T10:44:06;100318.19;;;17.21;100.00
22261;BME280;11299;43.202;27.920;2023-04-02T10:49:40;100282.28;;;17.28;100.00
22261;BME280;11299;43.202;27.920;2023-04-02T10:52:20;100270.16;;;17.32;100.00
22261;BME280;11299;43.202;27.920;2023-04-02T10:55:35;100258.56;;;17.12;100.00
22261;BME280;11299;43.202;27.920;2023-04-02T10:58:04;100290.47;;;17.38;100.00
22261;BME280;11299;43.202;27.920;2023-04-02T11:00:35;100274.97;;;17.72;100.00
22261;BME280;11299;43.202;27.920;2023-04-02T11:03:16;100270.94;;;17.92;100.00
22261;BME280;11299;43.202;27.920;2023-04-02T11:05:44;100287.78;;;18.14;100.00
22261;BME280;11299;43.202;27.920;2023-04-02T11:16:11;100170.00;;;17.26;100.00
22261;BME280;11299;43.202;27.920;2023-04-02T11:18:39;100148.47;;;17.13;100.00
22261;BME280;11299;43.202;27.920;2023-04-02T11:23:34;100271.97;;;17.82;100.00
22261;BME280;11299;43.202;27.920;2023-04-02T11:26:52;100279.06;;;18.02;100.00
22261;BME280;11299;43.202;27.920;2023-04-02T11:31:43;100281.66;;;18.12;100.00
22261;BME280;11299;43.202;27.920;2023-04-02T11:34:16;100291.94;;;18.03;100.00
22261;BME280;11299;43.202;27.920;2023-04-02T11:37:02;100256.13;;;17.78;100.00
22261;BME280;11299;43.202;27.920;2023-04-02T11:39:54;100272.88;;;17.92;100.00
22261;BME280;11299;43.202;27.920;2023-04-02T11:42:34;100231.06;;;17.59;100.00
22261;BME280;11299;43.202;27.920;2023-04-02T11:52:55;100255.44;;;18.08;95.07
22261;BME280;11299;43.202;27.920;2023-04-02T11:55:34;100239.88;;;18.51;94.27
22261;BME280;11299;43.202;27.920;2023-04-02T12:03:49;100287.22;;;19.67;87.30
22261;BME280;11299;43.202;27.920;2023-04-02T12:09:29;100285.72;;;20.17;86.17
22261;BME280;11299;43.202;27.920;2023-04-02T12:11:59;100297.41;;;20.02;84.00
22261;BME280;11299;43.202;27.920;2023-04-02T12:17:23;100164.03;;;19.01;83.77
22261;BME280;11299;43.202;27.920;2023-04-02T12:19:52;100282.19;;;19.47;86.28
22261;BME280;11299;43.202;27.920;2023-04-02T12:22:21;100263.00;;;19.10;86.56
22261;BME280;11299;43.202;27.920;2023-04-02T12:24:48;100262.66;;;18.81;86.76
22261;BME280;11299;43.202;27.920;2023-04-02T12:27:20;100262.28;;;18.73;88.47
22261;BME280;11299;43.202;27.920;2023-04-02T12:29:48;100258.03;;;18.54;88.53
22261;BME280;11299;43.202;27.920;2023-04-02T12:32:22;100325.25;;;18.76;88.11
22261;BME280;11299;43.202;27.920;2023-04-02T12:34:50;100194.41;;;18.10;86.99
22261;BME280;11299;43.202;27.920;2023-04-02T12:37:25;100287.84;;;18.58;88.17
22261;BME280;11299;43.202;27.920;2023-04-02T12:40:03;100342.56;;;18.42;91.21
22261;BME280;11299;43.202;27.920;2023-04-02T12:42:36;100287.16;;;18.53;93.67
22261;BME280;11299;43.202;27.920;2023-04-02T12:45:04;100292.28;;;18.37;96.34
22261;BME280;11299;43.202;27.920;2023-04-02T12:47:31;100277.56;;;18.32;99.88
22261;BME280;11299;43.202;27.920;2023-04-02T12:50:00;100312.47;;;18.48;100.00
22261;BME280;11299;43.202;27.920;2023-04-02T12:52:27;100208.03;;;17.90;100.00
22261;BME280;11299;43.202;27.920;2023-04-02T12:54:58;100191.56;;;17.88;100.00
22261;BME280;11299;43.202;27.920;2023-04-02T12:59:54;100277.88;;;18.30;100.00
22261;BME280;11299;43.202;27.920;2023-04-02T13:02:22;100260.00;;;18.40;100.00
22261;BME280;11299;43.202;27.920;2023-04-02T13:04:49;100292.88;;;18.70;100.00
22261;BME280;11299;43.202;27.920;2023-04-02T13:07:16;100313.09;;;18.81;100.00
22261;BME280;11299;43.202;27.920;2023-04-02T13:09:48;100300.03;;;18.76;100.00
22261;BME280;11299;43.202;27.920;2023-04-02T13:12:57;100310.41;;;18.98;100.00
22261;BME280;11299;43.202;27.920;2023-04-02T13:15:07;100148.34;;;18.16;99.71
22261;BME280;11299;43.202;27.920;2023-04-02T13:17:46;100313.81;;;19.39;98.62
22261;BME280;11299;43.202;27.920;2023-04-02T13:22:53;100303.94;;;20.28;91.23
22261;BME280;11299;43.202;27.920;2023-04-02T13:25:27;100228.22;;;20.06;89.46
22261;BME280;11299;43.202;27.920;2023-04-02T13:27:53;100204.56;;;19.73;88.92
22261;BME280;11299;43.202;27.920;2023-04-02T13:30:23;100277.31;;;20.51;89.20
22261;BME280;11299;43.202;27.920;2023-04-02T13:32:49;100316.66;;;20.94;85.72
22261;BME280;11299;43.202;27.920;2023-04-02T13:35:15;100295.00;;;20.95;84.41
22261;BME280;11299;43.202;27.920;2023-04-02T13:37:41;100137.41;;;20.19;83.47
22261;BME280;11299;43.202;27.920;2023-04-02T13:40:07;100257.09;;;21.18;82.68
22261;BME280;11299;43.202;27.920;2023-04-02T13:42:33;100297.44;;;21.22;81.29
22261;BME280;11299;43.202;27.920;2023-04-02T13:44:59;100258.47;;;20.86;82.24
22261;BME280;11299;43.202;27.920;2023-04-02T13:47:24;100235.78;;;21.00;81.96
22261;BME280;11299;43.202;27.920;2023-04-02T13:49:50;100315.28;;;21.43;80.66
22261;BME280;11299;43.202;27.920;2023-04-02T13:52:16;100296.25;;;22.15;79.44
22261;BME280;11299;43.202;27.920;2023-04-02T13:54:50;100302.03;;;22.19;77.39
22261;BME280;11299;43.202;27.920;2023-04-02T13:57:18;100280.81;;;21.92;76.85
22261;BME280;11299;43.202;27.920;2023-04-02T13:59:43;100296.91;;;22.12;76.72
22261;BME280;11299;43.202;27.920;2023-04-02T14:02:13;100240.50;;;21.71;75.13
22261;BME280;11299;43.202;27.920;2023-04-02T14:04:47;100271.41;;;22.17;75.58
22261;BME280;11299;43.202;27.920;2023-04-02T14:10:02;100254.97;;;21.99;73.52
22261;BME280;11299;43.202;27.920;2023-04-02T14:12:38;100310.28;;;21.57;73.52
22261;BME280;11299;43.202;27.920;2023-04-02T14:23:51;100183.63;;;20.05;78.54
22261;BME280;11299;43.202;27.920;2023-04-02T14:29:17;100295.34;;;20.68;79.11
22261;BME280;11299;43.202;27.920;2023-04-02T14:31:58;100296.84;;;20.91;79.59
22261;BME280;11299;43.202;27.920;2023-04-02T14:34:32;100303.63;;;20.81;81.84
22261;BME280;11299;43.202;27.920;2023-04-02T14:37:25;100292.06;;;20.66;83.22
22261;BME280;11299;43.202;27.920;2023-04-02T14:42:52;100184.63;;;19.83;84.54
22261;BME280;11299;43.202;27.920;2023-04-02T14:45:34;100294.38;;;20.38;84.65
22261;BME280;11299;43.202;27.920;2023-04-02T14:48:18;100298.72;;;20.05;84.01
22261;BME280;11299;43.202;27.920;2023-04-02T14:51:00;100293.75;;;19.93;84.17
22261;BME280;11299;43.202;27.920;2023-04-02T14:54:06;100074.41;;;18.61;84.77
22261;BME280;11299;43.202;27.920;2023-04-02T14:56:34;100304.94;;;19.85;85.10
22261;BME280;11299;43.202;27.920;2023-04-02T15:01:43;100232.22;;;19.18;86.76
22261;BME280;11299;43.202;27.920;2023-04-02T15:04:16;100300.06;;;19.59;86.45
22261;BME280;11299;43.202;27.920;2023-04-02T15:06:46;100291.94;;;19.49;86.79
22261;BME280;11299;43.202;27.920;2023-04-02T15:09:17;100174.13;;;18.71;87.28
22261;BME280;11299;43.202;27.920;2023-04-02T15:11:51;100311.25;;;19.51;87.00
22261;BME280;11299;43.202;27.920;2023-04-02T15:14:24;100253.28;;;19.77;84.36
22261;BME280;11299;43.202;27.920;2023-04-02T15:16:52;100239.84;;;20.47;82.58
22261;BME280;11299;43.202;27.920;2023-04-02T15:19:18;100296.25;;;21.40;78.79
22261;BME280;11299;43.202;27.920;2023-04-02T15:22:03;100329.78;;;22.08;76.06
22261;BME280;11299;43.202;27.920;2023-04-02T15:29:54;100209.31;;;21.56;70.08
22261;BME280;11299;43.202;27.920;2023-04-02T15:54:35;100348.84;;;19.89;82.97
22261;BME280;11299;43.202;27.920;2023-04-02T16:02:45;100352.25;;;19.38;85.45
22261;BME280;11299;43.202;27.920;2023-04-02T16:10:17;100343.19;;;19.19;87.67
22261;BME280;11299;43.202;27.920;2023-04-02T16:12:46;100346.56;;;19.08;87.57
22261;BME280;11299;43.202;27.920;2023-04-02T16:15:25;100370.97;;;19.29;87.62
22261;BME280;11299;43.202;27.920;2023-04-02T16:18:00;100314.75;;;19.04;88.29
22261;BME280;11299;43.202;27.920;2023-04-02T16:20:39;100285.06;;;18.81;88.32
22261;BME280;11299;43.202;27.920;2023-04-02T16:23:19;100261.16;;;18.52;88.47
22261;BME280;11299;43.202;27.920;2023-04-02T16:31:26;100364.44;;;18.54;92.92